createdAt,value
2022-11-17T00:01:39.208Z,27
2022-11-17T00:03:39.319Z,28
2022-11-17T00:05:39.431Z,28
2022-11-17T00:09:39.623Z,26
2022-11-17T00:11:39.749Z,27
2022-11-17T00:13:39.842Z,27
2022-11-17T00:15:39.969Z,27
2022-11-17T00:17:40.078Z,27
2022-11-17T00:19:40.199Z,26
2022-11-17T00:21:40.303Z,25
2022-11-17T00:23:40.430Z,25
2022-11-17T00:25:40.548Z,24
2022-11-17T00:27:40.633Z,25
2022-11-17T00:29:40.817Z,25
2022-11-17T00:31:40.865Z,24
2022-11-17T00:33:40.973Z,23
2022-11-17T00:35:41.091Z,23
2022-11-17T00:37:41.202Z,23
2022-11-17T00:39:41.378Z,22
2022-11-17T00:41:41.419Z,22
2022-11-17T00:43:41.521Z,22
2022-11-17T00:45:41.635Z,23
2022-11-17T00:47:41.748Z,23
2022-11-17T00:49:41.825Z,23
2022-11-17T00:51:41.924Z,22
2022-11-17T00:53:42.032Z,23
2022-11-17T00:55:42.253Z,23
2022-11-17T00:57:42.255Z,23
2022-11-17T00:59:42.357Z,23
2022-11-17T01:01:42.505Z,23
2022-11-17T01:03:42.562Z,24
2022-11-17T01:05:42.663Z,25
2022-11-17T01:07:42.781Z,26
2022-11-17T01:09:42.930Z,23
2022-11-17T01:11:43.003Z,22
2022-11-17T01:13:43.109Z,23
2022-11-17T01:15:43.209Z,22
2022-11-17T01:17:43.332Z,21
2022-11-17T01:19:43.445Z,21
2022-11-17T01:21:43.538Z,20
2022-11-17T01:23:43.649Z,19
2022-11-17T01:25:43.754Z,18
2022-11-17T01:27:43.849Z,18
2022-11-17T01:29:44.014Z,19
2022-11-17T01:31:44.069Z,21
2022-11-17T01:33:44.158Z,21
2022-11-17T01:35:44.268Z,22
2022-11-17T01:37:44.383Z,23
2022-11-17T01:39:44.492Z,24
2022-11-17T01:41:44.591Z,22
2022-11-17T01:43:44.685Z,21
2022-11-17T01:45:44.797Z,21
2022-11-17T01:47:44.910Z,20
2022-11-17T01:51:45.091Z,19
2022-11-17T01:53:45.197Z,18
2022-11-17T01:55:45.295Z,16
2022-11-17T01:57:45.388Z,16
2022-11-17T01:59:45.477Z,13
2022-11-17T02:01:45.638Z,13
2022-11-17T02:03:45.678Z,14
2022-11-17T02:05:45.782Z,14
2022-11-17T02:07:45.853Z,14
2022-11-17T02:09:45.935Z,13
2022-11-17T02:11:46.042Z,13
2022-11-17T02:13:46.142Z,13
2022-11-17T02:15:46.251Z,13
2022-11-17T02:17:46.354Z,13
2022-11-17T02:19:46.437Z,12
2022-11-17T02:21:46.539Z,11
2022-11-17T02:23:46.617Z,11
2022-11-17T02:25:46.691Z,11
2022-11-17T02:27:46.811Z,11
2022-11-17T02:29:46.862Z,12
2022-11-17T02:31:46.960Z,12
2022-11-17T02:33:47.048Z,11
2022-11-17T02:35:47.145Z,11
2022-11-17T02:37:47.238Z,12
2022-11-17T02:39:47.313Z,12
2022-11-17T02:41:47.411Z,10
2022-11-17T02:43:47.505Z,11
2022-11-17T02:45:47.603Z,11
2022-11-17T02:47:47.687Z,10
2022-11-17T02:49:47.768Z,11
2022-11-17T02:53:47.955Z,12
2022-11-17T02:55:48.050Z,11
2022-11-17T02:57:48.153Z,11
2022-11-17T02:59:48.248Z,10
2022-11-17T03:01:48.380Z,9
2022-11-17T03:03:48.435Z,8
2022-11-17T03:05:48.526Z,8
2022-11-17T03:07:48.613Z,8
2022-11-17T03:11:48.781Z,9
2022-11-17T03:13:48.873Z,8
2022-11-17T03:15:48.957Z,8
2022-11-17T03:17:49.056Z,9
2022-11-17T03:19:49.135Z,8
2022-11-17T03:21:49.224Z,9
2022-11-17T03:23:49.327Z,9
2022-11-17T03:25:49.389Z,8
2022-11-17T03:27:49.492Z,9
2022-11-17T03:29:49.578Z,9
2022-11-17T03:31:49.662Z,10
2022-11-17T03:35:50.980Z,10
2022-11-17T03:37:49.931Z,11
2022-11-17T03:39:50.028Z,11
2022-11-17T03:41:50.110Z,10
2022-11-17T03:43:50.208Z,10
2022-11-17T03:45:50.295Z,9
2022-11-17T03:47:50.384Z,10
2022-11-17T03:49:50.469Z,11
2022-11-17T03:52:20.608Z,9
2022-11-17T03:54:20.782Z,10
2022-11-17T03:56:20.841Z,9
2022-11-17T03:58:20.969Z,9
2022-11-17T04:02:21.197Z,9
2022-11-17T04:04:21.302Z,9
2022-11-17T04:06:21.413Z,9
2022-11-17T04:08:21.517Z,9
2022-11-17T04:10:21.645Z,9
2022-11-17T04:12:21.727Z,8
2022-11-17T04:14:21.920Z,8
2022-11-17T04:16:21.954Z,9
2022-11-17T04:20:22.156Z,8
2022-11-17T04:24:22.373Z,8
2022-11-17T04:26:22.491Z,7
2022-11-17T04:28:22.602Z,7
2022-11-17T04:32:22.810Z,6
2022-11-17T04:34:22.954Z,6
2022-11-17T04:36:23.043Z,6
2022-11-17T04:38:23.158Z,5
2022-11-17T04:40:23.286Z,6
2022-11-17T04:42:23.391Z,6
2022-11-17T04:44:23.526Z,6
2022-11-17T04:46:23.599Z,5
2022-11-17T04:48:23.693Z,6
2022-11-17T04:50:23.815Z,6
2022-11-17T04:52:28.463Z,6
2022-11-17T04:54:24.028Z,6
2022-11-17T04:56:24.137Z,7
2022-11-17T04:58:24.249Z,7
2022-11-17T05:00:24.352Z,7
2022-11-17T05:04:24.574Z,6
2022-11-17T05:06:24.668Z,6
2022-11-17T05:08:24.780Z,5
2022-11-17T05:10:24.880Z,4
2022-11-17T05:14:25.103Z,5
2022-11-17T05:16:25.199Z,5
2022-11-17T05:18:25.306Z,5
2022-11-17T05:20:25.416Z,5
2022-11-17T05:22:25.517Z,7
2022-11-17T05:24:25.614Z,5
2022-11-17T05:26:25.724Z,4
2022-11-17T05:28:25.816Z,5
2022-11-17T05:30:25.908Z,5
2022-11-17T05:34:26.139Z,6
2022-11-17T05:36:26.247Z,6
2022-11-17T05:38:26.384Z,6
2022-11-17T05:40:26.460Z,6
2022-11-17T05:42:26.557Z,6
2022-11-17T05:44:26.643Z,7
2022-11-17T05:46:26.824Z,10
2022-11-17T05:48:26.886Z,11
2022-11-17T05:50:26.958Z,9
2022-11-17T05:52:27.057Z,9
2022-11-17T05:54:27.168Z,8
2022-11-17T05:56:27.259Z,7
2022-11-17T05:58:27.365Z,5
2022-11-17T06:00:27.461Z,5
2022-11-17T06:02:27.588Z,5
2022-11-17T06:04:27.752Z,4
2022-11-17T06:06:27.772Z,4
2022-11-17T06:08:27.882Z,6
2022-11-17T06:12:28.092Z,6
2022-11-17T06:14:28.190Z,5
2022-11-17T06:16:28.280Z,6
2022-11-17T06:18:28.368Z,11
2022-11-17T06:20:28.476Z,12
2022-11-17T06:22:28.575Z,13
2022-11-17T06:24:28.648Z,12
2022-11-17T06:26:28.768Z,12
2022-11-17T06:28:28.853Z,12
2022-11-17T06:30:28.959Z,10
2022-11-17T06:32:29.049Z,11
2022-11-17T06:34:29.148Z,12
2022-11-17T06:36:29.254Z,12
2022-11-17T06:38:29.348Z,5
2022-11-17T06:40:29.450Z,10
2022-11-17T06:42:29.543Z,11
2022-11-17T06:44:29.619Z,7
2022-11-17T06:46:29.731Z,8
2022-11-17T06:48:29.796Z,7
2022-11-17T06:50:29.896Z,4
2022-11-17T06:52:30.036Z,3
2022-11-17T06:54:30.105Z,4
2022-11-17T06:56:30.209Z,5
2022-11-17T06:58:30.311Z,7
2022-11-17T07:00:30.586Z,9
2022-11-17T07:02:30.487Z,13
2022-11-17T07:04:30.580Z,9
2022-11-17T07:06:30.660Z,9
2022-11-17T07:08:30.770Z,7
2022-11-17T07:10:30.859Z,5
2022-11-17T07:12:30.993Z,4
2022-11-17T07:16:31.142Z,4
2022-11-17T07:18:31.232Z,5
2022-11-17T07:26:31.592Z,6
2022-11-17T07:28:31.662Z,5
2022-11-17T07:30:31.763Z,7
2022-11-17T07:34:31.918Z,12
2022-11-17T07:36:31.985Z,17
2022-11-17T07:38:32.097Z,23
2022-11-17T07:40:32.170Z,6
2022-11-17T07:42:32.245Z,6
2022-11-17T07:44:32.325Z,7
2022-11-17T07:46:32.400Z,9
2022-11-17T07:48:32.777Z,10
2022-11-17T07:50:32.597Z,11
2022-11-17T07:52:36.029Z,11
2022-11-17T07:55:02.830Z,10
2022-11-17T07:57:02.954Z,9
2022-11-17T07:59:03.078Z,8
2022-11-17T08:01:03.223Z,8
2022-11-17T08:03:03.308Z,9
2022-11-17T08:05:03.417Z,8
2022-11-17T08:07:03.594Z,8
2022-11-17T08:09:03.661Z,8
2022-11-17T08:11:03.788Z,10
2022-11-17T08:13:03.895Z,16
2022-11-17T08:15:03.964Z,16
2022-11-17T08:17:04.099Z,10
2022-11-17T08:19:04.186Z,17
2022-11-17T08:21:04.310Z,17
2022-11-17T08:23:04.427Z,14
2022-11-17T08:25:04.529Z,12
2022-11-17T08:27:04.651Z,12
2022-11-17T08:29:04.767Z,9
2022-11-17T08:31:04.901Z,7
2022-11-17T08:35:05.079Z,6
2022-11-17T08:37:05.183Z,7
2022-11-17T08:39:05.296Z,8
2022-11-17T08:41:05.414Z,9
2022-11-17T08:43:05.504Z,9
2022-11-17T08:45:05.621Z,6
2022-11-17T08:47:05.742Z,6
2022-11-17T08:49:05.827Z,7
2022-11-17T08:53:06.028Z,6
2022-11-17T08:55:06.172Z,5
2022-11-17T08:57:06.299Z,5
2022-11-17T08:59:06.324Z,6
2022-11-17T09:01:06.475Z,6
2022-11-17T09:03:06.562Z,5
2022-11-17T09:05:06.652Z,5
2022-11-17T09:07:06.860Z,4
2022-11-17T09:09:06.903Z,5
2022-11-17T09:11:06.990Z,5
2022-11-17T09:13:07.098Z,10
2022-11-17T09:15:07.248Z,9
2022-11-17T09:17:07.300Z,6
2022-11-17T09:19:07.404Z,13
2022-11-17T09:21:07.508Z,13
2022-11-17T09:23:07.596Z,8
2022-11-17T09:25:13.149Z,8
2022-11-17T09:27:07.791Z,11
2022-11-17T09:29:07.913Z,5
2022-11-17T09:31:08.043Z,5
2022-11-17T09:33:08.128Z,17
2022-11-17T09:35:08.231Z,15
2022-11-17T09:37:08.330Z,5
2022-11-17T09:39:08.434Z,5
2022-11-17T09:41:08.506Z,4
2022-11-17T09:43:08.619Z,3
2022-11-17T09:45:08.734Z,4
2022-11-17T09:47:08.813Z,4
2022-11-17T09:49:08.915Z,8
2022-11-17T09:51:09.000Z,6
2022-11-17T09:53:09.111Z,2
2022-11-17T09:55:09.192Z,3
2022-11-17T09:57:09.297Z,5
2022-11-17T09:59:09.380Z,6
2022-11-17T10:01:09.480Z,5
2022-11-17T10:03:09.588Z,4
2022-11-17T10:05:09.654Z,5
2022-11-17T10:07:09.830Z,4
2022-11-17T10:09:09.877Z,3
2022-11-17T10:11:09.974Z,4
2022-11-17T10:13:10.053Z,3
2022-11-17T10:15:10.141Z,4
2022-11-17T10:17:10.238Z,4
2022-11-17T10:19:10.336Z,5
2022-11-17T10:21:10.426Z,5
2022-11-17T10:23:10.534Z,4
2022-11-17T10:25:10.608Z,3
2022-11-17T10:27:10.704Z,3
2022-11-17T10:29:10.782Z,4
2022-11-17T10:31:10.889Z,5
2022-11-17T10:33:11.000Z,4
2022-11-17T10:35:11.063Z,4
2022-11-17T10:37:11.189Z,3
2022-11-17T10:39:17.468Z,4
2022-11-17T10:41:11.273Z,6
2022-11-17T10:43:11.372Z,4
2022-11-17T10:45:11.468Z,4
2022-11-17T10:47:11.553Z,4
2022-11-17T10:49:11.633Z,4
2022-11-17T10:51:11.703Z,4
2022-11-17T10:53:12.959Z,4
2022-11-17T10:55:11.862Z,4
2022-11-17T10:57:11.934Z,4
2022-11-17T10:59:12.028Z,4
2022-11-17T11:01:12.243Z,3
2022-11-17T11:03:12.206Z,3
2022-11-17T11:05:12.292Z,4
2022-11-17T11:07:42.419Z,4
2022-11-17T11:09:42.515Z,3
2022-11-17T11:11:42.616Z,3
2022-11-17T11:13:42.723Z,4
2022-11-17T11:15:42.868Z,5
2022-11-17T11:17:43.028Z,5
2022-11-17T11:19:43.075Z,4
2022-11-17T11:23:43.300Z,5
2022-11-17T11:25:43.388Z,7
2022-11-17T11:27:43.518Z,6
2022-11-17T11:29:43.633Z,5
2022-11-17T11:33:43.969Z,3
2022-11-17T11:37:44.028Z,2
2022-11-17T11:39:44.147Z,3
2022-11-17T11:41:44.237Z,3
2022-11-17T11:43:44.360Z,3
2022-11-17T11:45:44.459Z,6
2022-11-17T11:47:44.576Z,7
2022-11-17T11:49:44.773Z,3
2022-11-17T11:51:44.771Z,4
2022-11-17T11:53:44.890Z,2
2022-11-17T11:55:44.983Z,2
2022-11-17T11:57:45.103Z,2
2022-11-17T11:59:45.175Z,3
2022-11-17T12:01:45.252Z,3
2022-11-17T12:03:45.367Z,9
2022-11-17T12:05:45.466Z,6
2022-11-17T12:07:45.552Z,5
2022-11-17T12:09:45.659Z,2
2022-11-17T12:11:45.768Z,5
2022-11-17T12:13:51.217Z,4
2022-11-17T12:15:46.059Z,4
2022-11-17T12:17:46.058Z,4
2022-11-17T12:19:46.209Z,3
2022-11-17T12:21:46.343Z,3
2022-11-17T12:23:46.354Z,3
2022-11-17T12:25:50.621Z,3
2022-11-17T12:27:46.547Z,10
2022-11-17T12:29:46.626Z,4
2022-11-17T12:31:46.766Z,4
2022-11-17T12:33:46.842Z,5
2022-11-17T12:35:46.903Z,6
2022-11-17T12:37:46.992Z,5
2022-11-17T12:39:47.161Z,6
2022-11-17T12:41:47.178Z,3
2022-11-17T12:43:47.277Z,4
2022-11-17T12:45:47.362Z,5
2022-11-17T12:47:59.460Z,5
2022-11-17T12:49:47.503Z,4
2022-11-17T12:51:47.608Z,5
2022-11-17T12:53:47.710Z,4
2022-11-17T12:55:47.786Z,7
2022-11-17T12:57:47.877Z,5
2022-11-17T12:59:48.141Z,3
2022-11-17T13:01:48.240Z,4
2022-11-17T13:03:48.135Z,11
2022-11-17T13:05:57.331Z,8
2022-11-17T13:07:48.314Z,10
2022-11-17T13:09:48.419Z,6
2022-11-17T13:11:48.500Z,9
2022-11-17T13:13:48.611Z,7
2022-11-17T13:15:48.699Z,5
2022-11-17T13:17:48.800Z,9
2022-11-17T13:19:48.869Z,4
2022-11-17T13:21:48.979Z,4
2022-11-17T13:23:49.057Z,6
2022-11-17T13:25:49.158Z,6
2022-11-17T13:27:54.937Z,5
2022-11-17T13:29:49.317Z,6
2022-11-17T13:31:49.394Z,4
2022-11-17T13:33:49.502Z,5
2022-11-17T13:35:49.599Z,5
2022-11-17T13:37:49.667Z,4
2022-11-17T13:39:49.733Z,6
2022-11-17T13:41:49.887Z,5
2022-11-17T13:43:49.905Z,6
2022-11-17T13:45:50.000Z,5
2022-11-17T13:47:50.088Z,6
2022-11-17T13:52:20.433Z,5
2022-11-17T13:54:20.433Z,10
2022-11-17T13:56:20.572Z,10
2022-11-17T13:58:25.896Z,7
2022-11-17T14:00:20.803Z,11
2022-11-17T14:02:20.913Z,15
2022-11-17T14:04:21.676Z,17
2022-11-17T14:06:21.128Z,14
2022-11-17T14:08:21.294Z,12
2022-11-17T14:10:21.334Z,10
2022-11-17T14:12:21.431Z,18
2022-11-17T14:14:21.545Z,25
2022-11-17T14:16:21.647Z,23
2022-11-17T14:18:21.873Z,23
2022-11-17T14:20:21.875Z,18
2022-11-17T14:22:29.245Z,16
2022-11-17T14:24:22.119Z,15
2022-11-17T14:26:22.203Z,12
2022-11-17T14:28:22.326Z,13
2022-11-17T14:30:22.447Z,13
2022-11-17T14:32:22.549Z,12
2022-11-17T14:34:22.647Z,16
2022-11-17T14:36:22.769Z,14
2022-11-17T14:38:22.865Z,12
2022-11-17T14:40:22.961Z,13
2022-11-17T14:42:23.086Z,12
2022-11-17T14:44:23.225Z,12
2022-11-17T14:46:23.294Z,11
2022-11-17T14:48:23.460Z,12
2022-11-17T14:50:23.502Z,11
2022-11-17T14:52:23.612Z,12
2022-11-17T14:54:23.701Z,13
2022-11-17T14:56:23.804Z,15
2022-11-17T14:58:23.919Z,12
2022-11-17T15:00:24.012Z,13
2022-11-17T15:02:24.147Z,14
2022-11-17T15:04:48.988Z,21
2022-11-17T15:06:24.448Z,18
2022-11-17T15:08:24.456Z,18
2022-11-17T15:10:24.511Z,34
2022-11-17T15:12:24.628Z,39
2022-11-17T15:14:24.711Z,24
2022-11-17T15:16:24.811Z,39
2022-11-17T15:18:24.892Z,34
2022-11-17T15:20:24.969Z,31
2022-11-17T15:22:25.031Z,30
2022-11-17T15:24:25.150Z,33
2022-11-17T15:26:25.255Z,32
2022-11-17T15:28:29.061Z,35
2022-11-17T15:30:25.468Z,38
2022-11-17T15:32:25.551Z,36
2022-11-17T15:34:25.653Z,32
2022-11-17T15:36:25.794Z,34
2022-11-17T15:38:25.869Z,43
2022-11-17T15:40:25.959Z,41
2022-11-17T15:42:26.075Z,52
2022-11-17T15:44:26.167Z,51
2022-11-17T15:46:26.256Z,48
2022-11-17T15:48:26.345Z,85
2022-11-17T15:50:26.454Z,62
2022-11-17T15:52:48.514Z,30
2022-11-17T15:54:26.644Z,26
2022-11-17T15:56:26.734Z,22
2022-11-17T15:58:26.843Z,15
2022-11-17T16:00:26.923Z,11
2022-11-17T16:02:27.028Z,13
2022-11-17T16:04:27.124Z,15
2022-11-17T16:06:27.181Z,15
2022-11-17T16:08:27.311Z,20
2022-11-17T16:10:27.475Z,19
2022-11-17T16:12:27.539Z,23
2022-11-17T16:14:27.570Z,20
2022-11-17T16:16:27.664Z,16
2022-11-17T16:18:27.741Z,24
2022-11-17T16:20:27.864Z,27
2022-11-17T16:22:27.912Z,52
2022-11-17T16:24:28.020Z,35
2022-11-17T16:26:28.114Z,25
2022-11-17T16:28:28.192Z,19
2022-11-17T16:30:32.728Z,25
2022-11-17T16:32:28.373Z,27
2022-11-17T16:34:28.520Z,24
2022-11-17T16:36:34.324Z,32
2022-11-17T16:38:28.615Z,54
2022-11-17T16:40:28.688Z,44
2022-11-17T16:42:28.736Z,27
2022-11-17T16:44:28.902Z,23
2022-11-17T16:46:28.926Z,20
2022-11-17T16:48:29.003Z,24
2022-11-17T16:50:29.116Z,26
2022-11-17T16:52:29.181Z,28
2022-11-17T16:54:29.278Z,37
2022-11-17T16:56:29.359Z,38
2022-11-17T16:58:29.448Z,29
2022-11-17T17:00:29.533Z,29
2022-11-17T17:02:59.777Z,84
2022-11-17T17:04:59.808Z,66
2022-11-17T17:06:59.961Z,50
2022-11-17T17:09:00.054Z,39
2022-11-17T17:11:00.141Z,28
2022-11-17T17:13:00.277Z,28
2022-11-17T17:15:00.417Z,18
2022-11-17T17:17:00.522Z,19
2022-11-17T17:19:00.614Z,17
2022-11-17T17:21:00.734Z,25
2022-11-17T17:23:03.178Z,23
2022-11-17T17:25:00.953Z,21
2022-11-17T17:27:01.069Z,19
2022-11-17T17:29:01.197Z,22
2022-11-17T17:31:01.303Z,20
2022-11-17T17:33:01.438Z,21
2022-11-17T17:35:01.582Z,22
2022-11-17T17:37:01.638Z,23
2022-11-17T17:39:02.020Z,22
2022-11-17T17:41:01.855Z,20
2022-11-17T17:43:01.958Z,18
2022-11-17T17:45:02.102Z,20
2022-11-17T17:47:02.163Z,16
2022-11-17T17:49:02.288Z,13
2022-11-17T17:51:02.399Z,13
2022-11-17T17:53:02.525Z,13
2022-11-17T17:55:02.688Z,14
2022-11-17T17:57:02.707Z,17
2022-11-17T17:59:02.821Z,17
2022-11-17T18:01:02.915Z,21
2022-11-17T18:03:03.097Z,22
2022-11-17T18:05:03.125Z,29
2022-11-17T18:07:03.352Z,30
2022-11-17T18:09:03.357Z,21
2022-11-17T18:11:03.439Z,34
2022-11-17T18:13:07.792Z,35
2022-11-17T18:15:03.660Z,31
2022-11-17T18:17:03.766Z,35
2022-11-17T18:19:03.859Z,60
2022-11-17T18:21:03.987Z,32
2022-11-17T18:23:04.096Z,18
2022-11-17T18:25:07.709Z,17
2022-11-17T18:27:04.291Z,18
2022-11-17T18:29:04.407Z,18
2022-11-17T18:31:04.513Z,16
2022-11-17T18:33:04.592Z,12
2022-11-17T18:35:04.717Z,12
2022-11-17T18:37:04.816Z,13
2022-11-17T18:39:04.917Z,11
2022-11-17T18:41:05.032Z,11
2022-11-17T18:43:05.127Z,17
2022-11-17T18:45:05.236Z,16
2022-11-17T18:47:05.328Z,17
2022-11-17T18:49:05.450Z,11
2022-11-17T18:51:19.256Z,12
2022-11-17T18:53:05.613Z,12
2022-11-17T18:55:05.705Z,12
2022-11-17T18:57:05.817Z,11
2022-11-17T18:59:05.934Z,11
2022-11-17T19:01:06.070Z,13
2022-11-17T19:03:06.120Z,12
2022-11-17T19:05:06.230Z,24
2022-11-17T19:07:06.403Z,27
2022-11-17T19:09:06.441Z,30
2022-11-17T19:11:06.673Z,27
2022-11-17T19:13:06.654Z,26
2022-11-17T19:15:06.734Z,28
2022-11-17T19:17:06.874Z,18
2022-11-17T19:19:06.919Z,19
2022-11-17T19:21:07.022Z,23
2022-11-17T19:23:07.126Z,20
2022-11-17T19:25:07.219Z,16
2022-11-17T19:27:07.345Z,15
2022-11-17T19:29:12.646Z,15
2022-11-17T19:31:07.517Z,25
2022-11-17T19:33:07.636Z,45
2022-11-17T19:35:15.678Z,31
2022-11-17T19:37:07.814Z,24
2022-11-17T19:39:07.915Z,34
2022-11-17T19:41:07.996Z,57
2022-11-17T19:43:08.106Z,55
2022-11-17T19:45:08.186Z,40
2022-11-17T19:47:08.282Z,36
2022-11-17T19:49:08.396Z,18
2022-11-17T19:51:08.496Z,82
2022-11-17T19:53:08.588Z,58
2022-11-17T19:55:08.671Z,25
2022-11-17T19:57:08.764Z,11
2022-11-17T20:01:09.023Z,9
2022-11-17T20:03:09.020Z,16
2022-11-17T20:05:10.948Z,46
2022-11-17T20:07:09.243Z,56
2022-11-17T20:09:09.305Z,19
2022-11-17T20:11:09.404Z,40
2022-11-17T20:13:09.483Z,54
2022-11-17T20:15:27.071Z,41
2022-11-17T20:17:09.676Z,39
2022-11-17T20:19:09.805Z,38
2022-11-17T20:21:09.865Z,35
2022-11-17T20:23:09.941Z,33
2022-11-17T20:25:10.033Z,35
2022-11-17T20:27:10.119Z,23
2022-11-17T20:29:10.195Z,30
2022-11-17T20:31:10.314Z,25
2022-11-17T20:33:10.388Z,34
2022-11-17T20:35:10.487Z,31
2022-11-17T20:37:10.599Z,35
2022-11-17T20:39:10.700Z,28
2022-11-17T20:41:10.757Z,28
2022-11-17T20:43:10.856Z,30
2022-11-17T20:45:10.943Z,25
2022-11-17T20:47:11.031Z,21
2022-11-17T20:49:11.117Z,19
2022-11-17T20:51:11.215Z,17
2022-11-17T20:53:11.295Z,17
2022-11-17T20:55:11.378Z,18
2022-11-17T20:57:11.472Z,17
2022-11-17T20:59:16.862Z,23
2022-11-17T21:01:11.661Z,26
2022-11-17T21:03:11.696Z,20
2022-11-17T21:05:11.806Z,18
2022-11-17T21:07:11.934Z,18
2022-11-17T21:09:42.024Z,17
2022-11-17T21:11:42.148Z,23
2022-11-17T21:13:42.268Z,20
2022-11-17T21:15:42.401Z,20
2022-11-17T21:17:42.648Z,27
2022-11-17T21:19:42.606Z,24
2022-11-17T21:21:42.729Z,29
2022-11-17T21:23:42.853Z,25
2022-11-17T21:25:42.935Z,21
2022-11-17T21:27:43.055Z,27
2022-11-17T21:29:43.170Z,30
2022-11-17T21:31:43.282Z,31
2022-11-17T21:33:43.376Z,26
2022-11-17T21:35:43.498Z,22
2022-11-17T21:37:43.591Z,20
2022-11-17T21:39:43.694Z,21
2022-11-17T21:41:43.803Z,15
2022-11-17T21:43:43.931Z,15
2022-11-17T21:45:44.040Z,17
2022-11-17T21:47:44.132Z,16
2022-11-17T21:49:44.257Z,17
2022-11-17T21:51:44.368Z,16
2022-11-17T21:53:44.482Z,16
2022-11-17T21:55:44.587Z,15
2022-11-17T21:57:44.716Z,16
2022-11-17T21:59:44.827Z,15
2022-11-17T22:01:44.918Z,18
2022-11-17T22:03:45.045Z,18
2022-11-17T22:05:45.141Z,18
2022-11-17T22:07:45.229Z,18
2022-11-17T22:09:45.351Z,17
2022-11-17T22:11:45.467Z,19
2022-11-17T22:13:45.584Z,19
2022-11-17T22:15:45.683Z,20
2022-11-17T22:17:45.778Z,25
2022-11-17T22:19:46.072Z,25
2022-11-17T22:21:46.029Z,23
2022-11-17T22:23:46.092Z,21
2022-11-17T22:25:46.243Z,23
2022-11-17T22:27:46.308Z,24
2022-11-17T22:29:46.404Z,23
2022-11-17T22:31:46.510Z,22
2022-11-17T22:33:46.615Z,20
2022-11-17T22:35:46.721Z,17
2022-11-17T22:37:46.814Z,17
2022-11-17T22:39:46.920Z,16
2022-11-17T22:41:47.044Z,17
2022-11-17T22:43:47.135Z,17
2022-11-17T22:45:47.232Z,16
2022-11-17T22:47:47.382Z,16
2022-11-17T22:49:47.455Z,16
2022-11-17T22:51:47.566Z,16
2022-11-17T22:53:47.681Z,16
2022-11-17T22:57:47.897Z,15
2022-11-17T22:59:48.005Z,18
2022-11-17T23:01:48.134Z,18
2022-11-17T23:03:48.260Z,19
2022-11-17T23:05:48.311Z,23
2022-11-17T23:07:48.438Z,18
2022-11-17T23:09:48.535Z,21
2022-11-17T23:11:48.633Z,21
2022-11-17T23:13:48.749Z,22
2022-11-17T23:15:48.861Z,22
2022-11-17T23:17:48.942Z,23
2022-11-17T23:19:49.054Z,23
2022-11-17T23:21:49.110Z,26
2022-11-17T23:23:49.283Z,35
2022-11-17T23:25:49.328Z,45
2022-11-17T23:27:49.428Z,50
2022-11-17T23:29:49.546Z,55
2022-11-17T23:31:49.643Z,59
2022-11-17T23:33:49.729Z,57
2022-11-17T23:35:49.809Z,57
2022-11-17T23:37:49.921Z,53
2022-11-17T23:39:50.030Z,43
2022-11-17T23:41:50.138Z,35
2022-11-17T23:43:50.250Z,26
2022-11-17T23:45:50.361Z,20
2022-11-17T23:47:50.442Z,19
2022-11-17T23:49:50.564Z,16
2022-11-17T23:51:50.635Z,15
2022-11-17T23:53:50.735Z,13
2022-11-17T23:55:50.805Z,13
2022-11-17T23:57:50.890Z,11
2022-11-17T23:59:50.996Z,13
